sensor_id;sensor_type;location;lat;lon;timestamp;P1;durP1;ratioP1;P2;durP2;ratioP2
23390;SDS011;11868;45.606;5.302;2024-01-30T00:01:01;20.67;;;9.48;;
23390;SDS011;11868;45.606;5.302;2024-01-30T00:03:26;17.75;;;9.40;;
23390;SDS011;11868;45.606;5.302;2024-01-30T00:05:51;16.73;;;9.07;;
23390;SDS011;11868;45.606;5.302;2024-01-30T00:08:17;19.52;;;11.65;;
23390;SDS011;11868;45.606;5.302;2024-01-30T00:10:42;24.98;;;14.90;;
23390;SDS011;11868;45.606;5.302;2024-01-30T00:13:08;17.77;;;9.63;;
23390;SDS011;11868;45.606;5.302;2024-01-30T00:15:33;19.65;;;9.77;;
23390;SDS011;11868;45.606;5.302;2024-01-30T00:17:59;13.73;;;9.90;;
23390;SDS011;11868;45.606;5.302;2024-01-30T00:20:25;17.70;;;10.23;;
23390;SDS011;11868;45.606;5.302;2024-01-30T00:22:50;17.33;;;9.68;;
23390;SDS011;11868;45.606;5.302;2024-01-30T00:25:15;18.75;;;10.13;;
23390;SDS011;11868;45.606;5.302;2024-01-30T00:27:41;18.70;;;9.93;;
23390;SDS011;11868;45.606;5.302;2024-01-30T00:30:06;17.17;;;10.82;;
23390;SDS011;11868;45.606;5.302;2024-01-30T00:32:32;19.17;;;10.82;;
23390;SDS011;11868;45.606;5.302;2024-01-30T00:34:57;15.20;;;10.02;;
23390;SDS011;11868;45.606;5.302;2024-01-30T00:37:23;17.42;;;10.55;;
23390;SDS011;11868;45.606;5.302;2024-01-30T00:39:48;19.15;;;11.15;;
23390;SDS011;11868;45.606;5.302;2024-01-30T00:42:14;16.63;;;9.82;;
23390;SDS011;11868;45.606;5.302;2024-01-30T00:44:39;20.00;;;10.63;;
23390;SDS011;11868;45.606;5.302;2024-01-30T00:47:05;19.35;;;11.60;;
23390;SDS011;11868;45.606;5.302;2024-01-30T00:49:30;24.00;;;12.48;;
23390;SDS011;11868;45.606;5.302;2024-01-30T00:51:56;23.30;;;12.05;;
23390;SDS011;11868;45.606;5.302;2024-01-30T00:54:21;20.92;;;12.10;;
23390;SDS011;11868;45.606;5.302;2024-01-30T00:56:46;22.75;;;13.00;;
23390;SDS011;11868;45.606;5.302;2024-01-30T00:59:11;16.95;;;12.68;;
23390;SDS011;11868;45.606;5.302;2024-01-30T01:01:37;21.58;;;13.02;;
23390;SDS011;11868;45.606;5.302;2024-01-30T01:04:02;16.73;;;12.95;;
23390;SDS011;11868;45.606;5.302;2024-01-30T01:06:28;18.77;;;13.40;;
23390;SDS011;11868;45.606;5.302;2024-01-30T01:08:53;22.27;;;13.77;;
23390;SDS011;11868;45.606;5.302;2024-01-30T01:11:18;24.92;;;14.20;;
23390;SDS011;11868;45.606;5.302;2024-01-30T01:13:43;27.60;;;13.10;;
23390;SDS011;11868;45.606;5.302;2024-01-30T01:16:09;19.13;;;12.57;;
23390;SDS011;11868;45.606;5.302;2024-01-30T01:18:34;19.02;;;11.90;;
23390;SDS011;11868;45.606;5.302;2024-01-30T01:20:59;18.15;;;12.38;;
23390;SDS011;11868;45.606;5.302;2024-01-30T01:23:25;22.08;;;12.38;;
23390;SDS011;11868;45.606;5.302;2024-01-30T01:25:51;19.23;;;12.45;;
23390;SDS011;11868;45.606;5.302;2024-01-30T01:28:16;24.98;;;13.10;;
23390;SDS011;11868;45.606;5.302;2024-01-30T01:30:41;17.98;;;13.45;;
23390;SDS011;11868;45.606;5.302;2024-01-30T01:33:07;23.85;;;12.77;;
23390;SDS011;11868;45.606;5.302;2024-01-30T01:35:32;20.52;;;12.38;;
23390;SDS011;11868;45.606;5.302;2024-01-30T01:37:57;20.30;;;11.90;;
23390;SDS011;11868;45.606;5.302;2024-01-30T01:40:25;22.52;;;12.93;;
23390;SDS011;11868;45.606;5.302;2024-01-30T01:42:51;27.98;;;13.77;;
23390;SDS011;11868;45.606;5.302;2024-01-30T01:45:17;17.70;;;12.73;;
23390;SDS011;11868;45.606;5.302;2024-01-30T01:47:43;21.75;;;12.50;;
23390;SDS011;11868;45.606;5.302;2024-01-30T01:50:10;20.42;;;11.50;;
23390;SDS011;11868;45.606;5.302;2024-01-30T01:52:37;17.27;;;11.68;;
23390;SDS011;11868;45.606;5.302;2024-01-30T01:55:04;18.52;;;12.05;;
23390;SDS011;11868;45.606;5.302;2024-01-30T01:57:30;16.33;;;11.57;;
23390;SDS011;11868;45.606;5.302;2024-01-30T01:59:55;17.35;;;12.40;;
23390;SDS011;11868;45.606;5.302;2024-01-30T02:02:21;17.98;;;11.73;;
23390;SDS011;11868;45.606;5.302;2024-01-30T02:04:49;27.70;;;13.07;;
23390;SDS011;11868;45.606;5.302;2024-01-30T02:07:14;25.98;;;12.77;;
23390;SDS011;11868;45.606;5.302;2024-01-30T02:09:40;20.05;;;12.73;;
23390;SDS011;11868;45.606;5.302;2024-01-30T02:12:05;21.27;;;14.07;;
23390;SDS011;11868;45.606;5.302;2024-01-30T02:14:31;20.58;;;14.10;;
23390;SDS011;11868;45.606;5.302;2024-01-30T02:16:56;27.17;;;12.23;;
23390;SDS011;11868;45.606;5.302;2024-01-30T02:19:22;17.52;;;12.35;;
23390;SDS011;11868;45.606;5.302;2024-01-30T02:21:47;19.75;;;11.90;;
23390;SDS011;11868;45.606;5.302;2024-01-30T02:24:12;20.70;;;14.02;;
23390;SDS011;11868;45.606;5.302;2024-01-30T02:26:38;18.58;;;12.20;;
23390;SDS011;11868;45.606;5.302;2024-01-30T02:29:03;22.02;;;12.38;;
23390;SDS011;11868;45.606;5.302;2024-01-30T02:31:28;20.55;;;11.88;;
23390;SDS011;11868;45.606;5.302;2024-01-30T02:33:54;20.30;;;12.82;;
23390;SDS011;11868;45.606;5.302;2024-01-30T02:39:12;18.15;;;11.98;;
23390;SDS011;11868;45.606;5.302;2024-01-30T02:41:38;20.75;;;12.18;;
23390;SDS011;11868;45.606;5.302;2024-01-30T02:44:03;21.67;;;12.23;;
23390;SDS011;11868;45.606;5.302;2024-01-30T02:46:29;21.20;;;11.95;;
23390;SDS011;11868;45.606;5.302;2024-01-30T02:48:54;22.08;;;12.15;;
23390;SDS011;11868;45.606;5.302;2024-01-30T02:51:20;23.00;;;11.95;;
23390;SDS011;11868;45.606;5.302;2024-01-30T02:53:45;19.55;;;12.65;;
23390;SDS011;11868;45.606;5.302;2024-01-30T02:56:10;21.33;;;12.43;;
23390;SDS011;11868;45.606;5.302;2024-01-30T02:58:37;22.73;;;13.13;;
23390;SDS011;11868;45.606;5.302;2024-01-30T03:01:02;24.25;;;13.45;;
23390;SDS011;11868;45.606;5.302;2024-01-30T03:03:28;24.17;;;13.00;;
23390;SDS011;11868;45.606;5.302;2024-01-30T03:05:53;16.42;;;12.15;;
23390;SDS011;11868;45.606;5.302;2024-01-30T03:08:19;20.15;;;12.45;;
23390;SDS011;11868;45.606;5.302;2024-01-30T03:10:44;17.35;;;12.10;;
23390;SDS011;11868;45.606;5.302;2024-01-30T03:13:09;21.38;;;12.20;;
23390;SDS011;11868;45.606;5.302;2024-01-30T03:15:35;21.05;;;11.40;;
23390;SDS011;11868;45.606;5.302;2024-01-30T03:18:01;18.42;;;11.85;;
23390;SDS011;11868;45.606;5.302;2024-01-30T03:20:28;21.50;;;12.23;;
23390;SDS011;11868;45.606;5.302;2024-01-30T03:22:54;25.25;;;11.82;;
23390;SDS011;11868;45.606;5.302;2024-01-30T03:25:20;18.27;;;12.23;;
23390;SDS011;11868;45.606;5.302;2024-01-30T03:27:46;18.00;;;11.35;;
23390;SDS011;11868;45.606;5.302;2024-01-30T03:30:11;17.10;;;11.18;;
23390;SDS011;11868;45.606;5.302;2024-01-30T03:32:36;17.50;;;10.73;;
23390;SDS011;11868;45.606;5.302;2024-01-30T03:35:02;14.05;;;10.07;;
23390;SDS011;11868;45.606;5.302;2024-01-30T03:37:27;18.02;;;10.40;;
23390;SDS011;11868;45.606;5.302;2024-01-30T03:39:53;17.92;;;10.52;;
23390;SDS011;11868;45.606;5.302;2024-01-30T03:42:18;19.80;;;10.90;;
23390;SDS011;11868;45.606;5.302;2024-01-30T03:44:43;21.48;;;10.88;;
23390;SDS011;11868;45.606;5.302;2024-01-30T03:47:08;18.65;;;10.63;;
23390;SDS011;11868;45.606;5.302;2024-01-30T03:49:34;18.13;;;11.40;;
23390;SDS011;11868;45.606;5.302;2024-01-30T03:51:59;18.08;;;10.32;;
23390;SDS011;11868;45.606;5.302;2024-01-30T03:54:24;17.42;;;10.50;;
23390;SDS011;11868;45.606;5.302;2024-01-30T03:56:50;16.45;;;10.25;;
23390;SDS011;11868;45.606;5.302;2024-01-30T03:59:15;13.98;;;10.85;;
23390;SDS011;11868;45.606;5.302;2024-01-30T04:01:41;15.15;;;10.50;;
23390;SDS011;11868;45.606;5.302;2024-01-30T04:04:06;22.23;;;10.57;;
23390;SDS011;11868;45.606;5.302;2024-01-30T04:06:32;16.33;;;10.07;;
23390;SDS011;11868;45.606;5.302;2024-01-30T04:08:57;22.77;;;10.57;;
23390;SDS011;11868;45.606;5.302;2024-01-30T04:11:23;15.90;;;10.45;;
23390;SDS011;11868;45.606;5.302;2024-01-30T04:13:48;15.40;;;9.88;;
23390;SDS011;11868;45.606;5.302;2024-01-30T04:16:22;16.45;;;10.45;;
23390;SDS011;11868;45.606;5.302;2024-01-30T04:18:48;17.10;;;9.80;;
23390;SDS011;11868;45.606;5.302;2024-01-30T04:21:13;13.10;;;10.05;;
23390;SDS011;11868;45.606;5.302;2024-01-30T04:23:39;17.73;;;9.95;;
23390;SDS011;11868;45.606;5.302;2024-01-30T04:26:05;19.02;;;10.07;;
23390;SDS011;11868;45.606;5.302;2024-01-30T04:28:31;20.35;;;9.80;;
23390;SDS011;11868;45.606;5.302;2024-01-30T04:30:56;17.40;;;10.30;;
23390;SDS011;11868;45.606;5.302;2024-01-30T04:33:21;18.40;;;10.30;;
23390;SDS011;11868;45.606;5.302;2024-01-30T04:35:47;17.58;;;11.48;;
23390;SDS011;11868;45.606;5.302;2024-01-30T04:38:12;18.88;;;11.50;;
23390;SDS011;11868;45.606;5.302;2024-01-30T04:40:39;22.38;;;11.25;;
23390;SDS011;11868;45.606;5.302;2024-01-30T04:43:05;23.48;;;12.07;;
23390;SDS011;11868;45.606;5.302;2024-01-30T04:45:30;18.77;;;10.25;;
23390;SDS011;11868;45.606;5.302;2024-01-30T04:47:55;14.75;;;10.13;;
23390;SDS011;11868;45.606;5.302;2024-01-30T04:50:20;18.08;;;11.02;;
23390;SDS011;11868;45.606;5.302;2024-01-30T04:52:46;17.33;;;11.40;;
23390;SDS011;11868;45.606;5.302;2024-01-30T04:55:11;23.42;;;14.27;;
23390;SDS011;11868;45.606;5.302;2024-01-30T04:57:36;23.23;;;14.35;;
23390;SDS011;11868;45.606;5.302;2024-01-30T05:00:02;24.20;;;15.63;;
23390;SDS011;11868;45.606;5.302;2024-01-30T05:02:28;18.92;;;11.45;;
23390;SDS011;11868;45.606;5.302;2024-01-30T05:04:53;18.45;;;10.25;;
23390;SDS011;11868;45.606;5.302;2024-01-30T05:07:19;16.33;;;10.80;;
23390;SDS011;11868;45.606;5.302;2024-01-30T05:09:44;16.98;;;9.88;;
23390;SDS011;11868;45.606;5.302;2024-01-30T05:12:10;15.32;;;11.00;;
23390;SDS011;11868;45.606;5.302;2024-01-30T05:14:35;18.55;;;10.68;;
23390;SDS011;11868;45.606;5.302;2024-01-30T05:17:00;15.63;;;9.77;;
23390;SDS011;11868;45.606;5.302;2024-01-30T05:19:28;16.67;;;10.82;;
23390;SDS011;11868;45.606;5.302;2024-01-30T05:21:53;17.92;;;10.82;;
23390;SDS011;11868;45.606;5.302;2024-01-30T05:24:18;17.20;;;10.95;;
23390;SDS011;11868;45.606;5.302;2024-01-30T05:26:44;20.85;;;10.48;;
23390;SDS011;11868;45.606;5.302;2024-01-30T05:29:09;14.82;;;10.23;;
23390;SDS011;11868;45.606;5.302;2024-01-30T05:31:34;18.88;;;11.90;;
23390;SDS011;11868;45.606;5.302;2024-01-30T05:34:00;18.63;;;10.88;;
23390;SDS011;11868;45.606;5.302;2024-01-30T05:36:25;19.02;;;10.90;;
23390;SDS011;11868;45.606;5.302;2024-01-30T05:38:50;19.45;;;10.80;;
23390;SDS011;11868;45.606;5.302;2024-01-30T05:41:16;18.23;;;11.25;;
23390;SDS011;11868;45.606;5.302;2024-01-30T05:43:41;13.80;;;10.63;;
23390;SDS011;11868;45.606;5.302;2024-01-30T05:46:07;20.48;;;11.25;;
23390;SDS011;11868;45.606;5.302;2024-01-30T05:48:32;19.25;;;10.88;;
23390;SDS011;11868;45.606;5.302;2024-01-30T05:50:58;15.98;;;11.43;;
23390;SDS011;11868;45.606;5.302;2024-01-30T05:53:24;21.50;;;10.88;;
23390;SDS011;11868;45.606;5.302;2024-01-30T05:55:50;20.40;;;11.50;;
23390;SDS011;11868;45.606;5.302;2024-01-30T05:58:15;15.70;;;10.90;;
23390;SDS011;11868;45.606;5.302;2024-01-30T06:00:41;19.02;;;11.93;;
23390;SDS011;11868;45.606;5.302;2024-01-30T06:03:07;21.15;;;11.00;;
23390;SDS011;11868;45.606;5.302;2024-01-30T06:05:32;28.02;;;11.43;;
23390;SDS011;11868;45.606;5.302;2024-01-30T06:07:57;20.40;;;11.60;;
23390;SDS011;11868;45.606;5.302;2024-01-30T06:10:23;18.50;;;11.90;;
23390;SDS011;11868;45.606;5.302;2024-01-30T06:12:48;20.55;;;12.00;;
23390;SDS011;11868;45.606;5.302;2024-01-30T06:15:13;17.48;;;10.75;;
23390;SDS011;11868;45.606;5.302;2024-01-30T06:17:39;18.73;;;10.32;;
23390;SDS011;11868;45.606;5.302;2024-01-30T06:20:04;21.27;;;10.98;;
23390;SDS011;11868;45.606;5.302;2024-01-30T06:22:30;14.90;;;10.73;;
23390;SDS011;11868;45.606;5.302;2024-01-30T06:24:56;16.38;;;11.18;;
23390;SDS011;11868;45.606;5.302;2024-01-30T06:27:21;17.35;;;11.02;;
23390;SDS011;11868;45.606;5.302;2024-01-30T06:29:46;19.50;;;10.90;;
23390;SDS011;11868;45.606;5.302;2024-01-30T06:32:11;18.20;;;10.70;;
23390;SDS011;11868;45.606;5.302;2024-01-30T06:34:37;17.77;;;11.05;;
23390;SDS011;11868;45.606;5.302;2024-01-30T06:37:03;18.75;;;10.05;;
23390;SDS011;11868;45.606;5.302;2024-01-30T06:39:29;16.05;;;10.48;;
23390;SDS011;11868;45.606;5.302;2024-01-30T06:41:54;20.67;;;10.95;;
23390;SDS011;11868;45.606;5.302;2024-01-30T06:44:19;17.35;;;10.32;;
23390;SDS011;11868;45.606;5.302;2024-01-30T06:46:45;14.77;;;10.07;;
23390;SDS011;11868;45.606;5.302;2024-01-30T06:49:10;15.32;;;10.27;;
23390;SDS011;11868;45.606;5.302;2024-01-30T06:51:35;18.92;;;12.80;;
23390;SDS011;11868;45.606;5.302;2024-01-30T06:54:01;22.95;;;13.77;;
23390;SDS011;11868;45.606;5.302;2024-01-30T06:56:26;20.83;;;13.88;;
23390;SDS011;11868;45.606;5.302;2024-01-30T06:58:51;20.48;;;15.25;;
23390;SDS011;11868;45.606;5.302;2024-01-30T07:01:17;19.30;;;14.15;;
23390;SDS011;11868;45.606;5.302;2024-01-30T07:03:42;18.20;;;13.98;;
23390;SDS011;11868;45.606;5.302;2024-01-30T07:06:08;18.35;;;14.73;;
23390;SDS011;11868;45.606;5.302;2024-01-30T07:08:34;20.17;;;13.95;;
23390;SDS011;11868;45.606;5.302;2024-01-30T07:10:59;21.73;;;13.35;;
23390;SDS011;11868;45.606;5.302;2024-01-30T07:13:25;19.35;;;11.70;;
23390;SDS011;11868;45.606;5.302;2024-01-30T07:15:50;17.77;;;12.02;;
23390;SDS011;11868;45.606;5.302;2024-01-30T07:18:15;21.67;;;11.05;;
23390;SDS011;11868;45.606;5.302;2024-01-30T07:20:41;17.15;;;10.45;;
23390;SDS011;11868;45.606;5.302;2024-01-30T07:23:11;13.85;;;9.90;;
23390;SDS011;11868;45.606;5.302;2024-01-30T07:25:41;14.38;;;10.50;;
23390;SDS011;11868;45.606;5.302;2024-01-30T07:28:07;18.98;;;10.95;;
23390;SDS011;11868;45.606;5.302;2024-01-30T07:30:34;14.98;;;11.05;;
23390;SDS011;11868;45.606;5.302;2024-01-30T07:33:00;20.13;;;11.13;;
23390;SDS011;11868;45.606;5.302;2024-01-30T07:35:25;17.75;;;10.05;;
23390;SDS011;11868;45.606;5.302;2024-01-30T07:37:50;13.23;;;10.20;;
23390;SDS011;11868;45.606;5.302;2024-01-30T07:40:16;14.13;;;10.20;;
23390;SDS011;11868;45.606;5.302;2024-01-30T07:42:42;17.17;;;10.30;;
23390;SDS011;11868;45.606;5.302;2024-01-30T07:45:07;18.58;;;9.93;;
23390;SDS011;11868;45.606;5.302;2024-01-30T07:47:33;18.23;;;11.02;;
23390;SDS011;11868;45.606;5.302;2024-01-30T07:49:58;17.63;;;10.85;;
23390;SDS011;11868;45.606;5.302;2024-01-30T07:52:24;16.50;;;10.35;;
23390;SDS011;11868;45.606;5.302;2024-01-30T07:54:49;18.67;;;11.38;;
23390;SDS011;11868;45.606;5.302;2024-01-30T07:57:15;19.25;;;11.55;;
23390;SDS011;11868;45.606;5.302;2024-01-30T07:59:44;16.88;;;10.85;;
23390;SDS011;11868;45.606;5.302;2024-01-30T08:02:11;19.02;;;11.68;;
23390;SDS011;11868;45.606;5.302;2024-01-30T08:04:37;20.67;;;11.55;;
23390;SDS011;11868;45.606;5.302;2024-01-30T08:07:03;17.63;;;11.88;;
23390;SDS011;11868;45.606;5.302;2024-01-30T08:09:28;15.52;;;11.43;;
23390;SDS011;11868;45.606;5.302;2024-01-30T08:11:53;15.27;;;11.07;;
23390;SDS011;11868;45.606;5.302;2024-01-30T08:14:19;16.20;;;10.18;;
23390;SDS011;11868;45.606;5.302;2024-01-30T08:16:44;18.88;;;10.52;;
23390;SDS011;11868;45.606;5.302;2024-01-30T08:19:09;16.90;;;10.55;;
23390;SDS011;11868;45.606;5.302;2024-01-30T08:21:35;19.48;;;11.00;;
23390;SDS011;11868;45.606;5.302;2024-01-30T08:24:04;18.20;;;10.15;;
23390;SDS011;11868;45.606;5.302;2024-01-30T08:26:31;19.05;;;11.32;;
23390;SDS011;11868;45.606;5.302;2024-01-30T08:28:57;19.65;;;10.82;;
23390;SDS011;11868;45.606;5.302;2024-01-30T08:31:22;18.73;;;10.55;;
23390;SDS011;11868;45.606;5.302;2024-01-30T08:33:48;18.98;;;10.02;;
23390;SDS011;11868;45.606;5.302;2024-01-30T08:36:13;18.88;;;10.27;;
23390;SDS011;11868;45.606;5.302;2024-01-30T08:38:38;20.55;;;10.45;;
23390;SDS011;11868;45.606;5.302;2024-01-30T08:41:04;15.10;;;10.43;;
23390;SDS011;11868;45.606;5.302;2024-01-30T08:43:30;17.33;;;10.75;;
23390;SDS011;11868;45.606;5.302;2024-01-30T08:45:55;17.05;;;10.02;;
23390;SDS011;11868;45.606;5.302;2024-01-30T08:48:22;17.33;;;10.15;;
23390;SDS011;11868;45.606;5.302;2024-01-30T08:50:47;14.15;;;9.10;;
23390;SDS011;11868;45.606;5.302;2024-01-30T08:53:13;23.42;;;9.85;;
23390;SDS011;11868;45.606;5.302;2024-01-30T08:55:38;13.55;;;9.07;;
23390;SDS011;11868;45.606;5.302;2024-01-30T08:58:04;13.70;;;9.50;;
23390;SDS011;11868;45.606;5.302;2024-01-30T09:00:30;14.15;;;9.45;;
23390;SDS011;11868;45.606;5.302;2024-01-30T09:02:55;14.18;;;9.40;;
23390;SDS011;11868;45.606;5.302;2024-01-30T09:05:20;15.88;;;9.63;;
23390;SDS011;11868;45.606;5.302;2024-01-30T09:07:46;14.98;;;9.60;;
23390;SDS011;11868;45.606;5.302;2024-01-30T09:10:11;19.08;;;9.27;;
23390;SDS011;11868;45.606;5.302;2024-01-30T09:12:36;13.90;;;8.52;;
23390;SDS011;11868;45.606;5.302;2024-01-30T09:15:03;12.90;;;9.40;;
23390;SDS011;11868;45.606;5.302;2024-01-30T09:17:28;18.42;;;9.23;;
23390;SDS011;11868;45.606;5.302;2024-01-30T09:19:54;13.85;;;9.32;;
23390;SDS011;11868;45.606;5.302;2024-01-30T09:22:20;14.45;;;9.48;;
23390;SDS011;11868;45.606;5.302;2024-01-30T09:24:45;16.38;;;8.63;;
23390;SDS011;11868;45.606;5.302;2024-01-30T09:27:10;16.35;;;9.15;;
23390;SDS011;11868;45.606;5.302;2024-01-30T09:29:36;13.65;;;8.48;;
23390;SDS011;11868;45.606;5.302;2024-01-30T09:32:01;14.40;;;8.88;;
23390;SDS011;11868;45.606;5.302;2024-01-30T09:34:26;15.38;;;9.52;;
23390;SDS011;11868;45.606;5.302;2024-01-30T09:36:52;11.25;;;7.43;;
23390;SDS011;11868;45.606;5.302;2024-01-30T09:39:17;13.23;;;8.40;;
23390;SDS011;11868;45.606;5.302;2024-01-30T09:41:45;12.77;;;7.95;;
23390;SDS011;11868;45.606;5.302;2024-01-30T09:44:15;12.18;;;7.97;;
23390;SDS011;11868;45.606;5.302;2024-01-30T09:46:41;11.02;;;6.65;;
23390;SDS011;11868;45.606;5.302;2024-01-30T09:49:07;14.10;;;7.32;;
23390;SDS011;11868;45.606;5.302;2024-01-30T09:51:33;10.45;;;7.30;;
23390;SDS011;11868;45.606;5.302;2024-01-30T09:53:59;12.23;;;6.45;;
23390;SDS011;11868;45.606;5.302;2024-01-30T09:56:24;12.93;;;6.47;;
23390;SDS011;11868;45.606;5.302;2024-01-30T09:58:49;9.52;;;6.32;;
23390;SDS011;11868;45.606;5.302;2024-01-30T10:01:15;10.35;;;6.25;;
23390;SDS011;11868;45.606;5.302;2024-01-30T10:03:44;11.35;;;6.25;;
23390;SDS011;11868;45.606;5.302;2024-01-30T10:06:09;8.65;;;5.32;;
23390;SDS011;11868;45.606;5.302;2024-01-30T10:08:35;12.63;;;6.28;;
23390;SDS011;11868;45.606;5.302;2024-01-30T10:11:00;12.25;;;5.30;;
23390;SDS011;11868;45.606;5.302;2024-01-30T10:13:26;12.45;;;5.28;;
23390;SDS011;11868;45.606;5.302;2024-01-30T10:15:52;10.43;;;5.30;;
23390;SDS011;11868;45.606;5.302;2024-01-30T10:18:18;10.35;;;5.05;;
23390;SDS011;11868;45.606;5.302;2024-01-30T10:20:43;9.07;;;4.88;;
23390;SDS011;11868;45.606;5.302;2024-01-30T10:23:09;12.20;;;5.05;;
23390;SDS011;11868;45.606;5.302;2024-01-30T10:25:34;10.65;;;5.28;;
23390;SDS011;11868;45.606;5.302;2024-01-30T10:28:00;9.10;;;5.00;;
23390;SDS011;11868;45.606;5.302;2024-01-30T10:30:26;7.82;;;4.97;;
23390;SDS011;11868;45.606;5.302;2024-01-30T10:32:52;8.40;;;5.38;;
23390;SDS011;11868;45.606;5.302;2024-01-30T10:35:18;10.30;;;4.75;;
23390;SDS011;11868;45.606;5.302;2024-01-30T10:37:43;8.57;;;4.80;;
23390;SDS011;11868;45.606;5.302;2024-01-30T10:40:09;9.73;;;4.90;;
23390;SDS011;11868;45.606;5.302;2024-01-30T10:42:38;10.50;;;7.00;;
23390;SDS011;11868;45.606;5.302;2024-01-30T10:45:08;10.00;;;5.43;;
23390;SDS011;11868;45.606;5.302;2024-01-30T10:47:34;8.15;;;4.32;;
23390;SDS011;11868;45.606;5.302;2024-01-30T10:50:01;10.27;;;4.72;;
23390;SDS011;11868;45.606;5.302;2024-01-30T10:52:28;8.18;;;4.40;;
23390;SDS011;11868;45.606;5.302;2024-01-30T10:54:55;7.70;;;4.28;;
23390;SDS011;11868;45.606;5.302;2024-01-30T10:57:24;8.48;;;3.75;;
23390;SDS011;11868;45.606;5.302;2024-01-30T10:59:55;8.85;;;4.63;;
23390;SDS011;11868;45.606;5.302;2024-01-30T11:02:23;5.72;;;3.72;;
23390;SDS011;11868;45.606;5.302;2024-01-30T11:04:55;6.45;;;3.70;;
23390;SDS011;11868;45.606;5.302;2024-01-30T11:07:26;10.90;;;5.70;;
23390;SDS011;11868;45.606;5.302;2024-01-30T11:09:53;4.53;;;3.72;;
23390;SDS011;11868;45.606;5.302;2024-01-30T11:12:32;8.55;;;6.00;;
23390;SDS011;11868;45.606;5.302;2024-01-30T11:15:01;7.45;;;3.65;;
23390;SDS011;11868;45.606;5.302;2024-01-30T11:20:15;8.68;;;6.03;;
23390;SDS011;11868;45.606;5.302;2024-01-30T11:22:42;9.27;;;4.18;;
23390;SDS011;11868;45.606;5.302;2024-01-30T11:25:13;6.28;;;4.28;;
23390;SDS011;11868;45.606;5.302;2024-01-30T11:27:39;6.32;;;3.80;;
23390;SDS011;11868;45.606;5.302;2024-01-30T11:30:06;7.45;;;3.80;;
23390;SDS011;11868;45.606;5.302;2024-01-30T11:32:33;7.72;;;4.00;;
23390;SDS011;11868;45.606;5.302;2024-01-30T11:34:58;8.52;;;4.38;;
23390;SDS011;11868;45.606;5.302;2024-01-30T11:37:24;5.90;;;3.60;;
23390;SDS011;11868;45.606;5.302;2024-01-30T11:39:50;7.72;;;4.55;;
23390;SDS011;11868;45.606;5.302;2024-01-30T11:42:16;7.88;;;3.42;;
23390;SDS011;11868;45.606;5.302;2024-01-30T11:44:46;8.85;;;4.05;;
23390;SDS011;11868;45.606;5.302;2024-01-30T11:47:12;11.40;;;3.75;;
23390;SDS011;11868;45.606;5.302;2024-01-30T11:49:37;9.00;;;4.70;;
23390;SDS011;11868;45.606;5.302;2024-01-30T11:52:03;13.82;;;4.55;;
23390;SDS011;11868;45.606;5.302;2024-01-30T11:54:29;7.88;;;3.55;;
23390;SDS011;11868;45.606;5.302;2024-01-30T11:56:54;14.30;;;3.83;;
23390;SDS011;11868;45.606;5.302;2024-01-30T11:59:19;8.02;;;3.38;;
23390;SDS011;11868;45.606;5.302;2024-01-30T12:01:45;14.18;;;4.13;;
23390;SDS011;11868;45.606;5.302;2024-01-30T12:04:10;5.90;;;3.63;;
23390;SDS011;11868;45.606;5.302;2024-01-30T12:06:35;7.85;;;3.78;;
23390;SDS011;11868;45.606;5.302;2024-01-30T12:09:02;7.88;;;3.55;;
23390;SDS011;11868;45.606;5.302;2024-01-30T12:11:33;6.05;;;4.03;;
23390;SDS011;11868;45.606;5.302;2024-01-30T12:14:08;7.50;;;2.85;;
23390;SDS011;11868;45.606;5.302;2024-01-30T12:16:34;5.85;;;3.10;;
23390;SDS011;11868;45.606;5.302;2024-01-30T12:19:00;7.22;;;2.90;;
23390;SDS011;11868;45.606;5.302;2024-01-30T12:21:28;6.57;;;2.65;;
23390;SDS011;11868;45.606;5.302;2024-01-30T12:23:56;5.55;;;2.85;;
23390;SDS011;11868;45.606;5.302;2024-01-30T12:26:22;8.52;;;3.25;;
23390;SDS011;11868;45.606;5.302;2024-01-30T12:28:48;6.72;;;2.90;;
23390;SDS011;11868;45.606;5.302;2024-01-30T12:31:15;7.43;;;3.22;;
23390;SDS011;11868;45.606;5.302;2024-01-30T12:33:40;5.75;;;2.90;;
23390;SDS011;11868;45.606;5.302;2024-01-30T12:36:06;4.15;;;2.80;;
23390;SDS011;11868;45.606;5.302;2024-01-30T12:38:31;5.95;;;2.80;;
23390;SDS011;11868;45.606;5.302;2024-01-30T12:40:57;4.88;;;2.58;;
23390;SDS011;11868;45.606;5.302;2024-01-30T12:43:26;4.75;;;2.60;;
23390;SDS011;11868;45.606;5.302;2024-01-30T12:45:54;7.55;;;2.85;;
23390;SDS011;11868;45.606;5.302;2024-01-30T12:48:20;5.80;;;2.85;;
23390;SDS011;11868;45.606;5.302;2024-01-30T12:50:45;5.57;;;2.95;;
23390;SDS011;11868;45.606;5.302;2024-01-30T12:53:10;8.10;;;2.83;;
23390;SDS011;11868;45.606;5.302;2024-01-30T12:55:37;6.53;;;2.60;;
23390;SDS011;11868;45.606;5.302;2024-01-30T12:58:03;4.38;;;2.70;;
23390;SDS011;11868;45.606;5.302;2024-01-30T13:00:28;6.72;;;2.75;;
23390;SDS011;11868;45.606;5.302;2024-01-30T13:02:54;4.30;;;2.80;;
23390;SDS011;11868;45.606;5.302;2024-01-30T13:05:19;6.30;;;2.67;;
23390;SDS011;11868;45.606;5.302;2024-01-30T13:07:45;7.53;;;2.45;;
23390;SDS011;11868;45.606;5.302;2024-01-30T13:10:10;5.57;;;3.22;;
23390;SDS011;11868;45.606;5.302;2024-01-30T13:12:36;8.20;;;3.05;;
23390;SDS011;11868;45.606;5.302;2024-01-30T13:15:03;5.97;;;3.00;;
23390;SDS011;11868;45.606;5.302;2024-01-30T13:17:30;8.23;;;2.80;;
23390;SDS011;11868;45.606;5.302;2024-01-30T13:19:55;5.63;;;2.75;;
23390;SDS011;11868;45.606;5.302;2024-01-30T13:22:20;6.80;;;2.30;;
23390;SDS011;11868;45.606;5.302;2024-01-30T13:24:46;4.68;;;2.20;;
23390;SDS011;11868;45.606;5.302;2024-01-30T13:27:12;5.90;;;2.50;;
23390;SDS011;11868;45.606;5.302;2024-01-30T13:29:37;7.72;;;2.53;;
23390;SDS011;11868;45.606;5.302;2024-01-30T13:32:03;4.40;;;2.40;;
23390;SDS011;11868;45.606;5.302;2024-01-30T13:34:28;6.22;;;2.50;;
23390;SDS011;11868;45.606;5.302;2024-01-30T13:36:54;4.93;;;2.25;;
23390;SDS011;11868;45.606;5.302;2024-01-30T13:39:19;4.75;;;2.08;;
23390;SDS011;11868;45.606;5.302;2024-01-30T13:41:44;5.95;;;2.22;;
23390;SDS011;11868;45.606;5.302;2024-01-30T13:44:10;3.20;;;1.80;;
23390;SDS011;11868;45.606;5.302;2024-01-30T13:46:35;5.13;;;2.10;;
23390;SDS011;11868;45.606;5.302;2024-01-30T13:49:01;3.65;;;1.95;;
23390;SDS011;11868;45.606;5.302;2024-01-30T13:51:27;3.30;;;1.85;;
23390;SDS011;11868;45.606;5.302;2024-01-30T13:53:52;3.70;;;1.70;;
23390;SDS011;11868;45.606;5.302;2024-01-30T13:56:18;2.08;;;1.73;;
23390;SDS011;11868;45.606;5.302;2024-01-30T13:58:44;2.88;;;2.00;;
23390;SDS011;11868;45.606;5.302;2024-01-30T14:01:10;4.85;;;2.10;;
23390;SDS011;11868;45.606;5.302;2024-01-30T14:03:35;4.68;;;2.30;;
23390;SDS011;11868;45.606;5.302;2024-01-30T14:06:00;4.93;;;2.03;;
23390;SDS011;11868;45.606;5.302;2024-01-30T14:08:26;4.75;;;2.13;;
23390;SDS011;11868;45.606;5.302;2024-01-30T14:10:53;2.50;;;1.88;;
23390;SDS011;11868;45.606;5.302;2024-01-30T14:13:19;5.53;;;2.33;;
23390;SDS011;11868;45.606;5.302;2024-01-30T14:15:44;3.90;;;2.05;;
23390;SDS011;11868;45.606;5.302;2024-01-30T14:18:10;4.90;;;2.40;;
23390;SDS011;11868;45.606;5.302;2024-01-30T14:20:36;5.28;;;2.40;;
23390;SDS011;11868;45.606;5.302;2024-01-30T14:23:01;6.18;;;2.35;;
23390;SDS011;11868;45.606;5.302;2024-01-30T14:25:27;6.95;;;3.13;;
23390;SDS011;11868;45.606;5.302;2024-01-30T14:27:52;4.65;;;2.20;;